sensor_id;sensor_type;location;lat;lon;timestamp;temperature;humidity
33105;DHT22;19476;51.448;6.674;2023-04-06T00:01:40;13.70;32.00
33105;DHT22;19476;51.448;6.674;2023-04-06T00:04:07;13.70;32.10
33105;DHT22;19476;51.448;6.674;2023-04-06T00:06:33;13.60;32.20
33105;DHT22;19476;51.448;6.674;2023-04-06T00:09:00;13.60;32.20
33105;DHT22;19476;51.448;6.674;2023-04-06T00:11:26;13.50;32.30
33105;DHT22;19476;51.448;6.674;2023-04-06T00:13:52;13.50;32.40
33105;DHT22;19476;51.448;6.674;2023-04-06T00:16:19;13.50;32.30
33105;DHT22;19476;51.448;6.674;2023-04-06T00:18:45;13.50;32.40
33105;DHT22;19476;51.448;6.674;2023-04-06T00:21:12;13.40;32.30
33105;DHT22;19476;51.448;6.674;2023-04-06T00:23:41;13.40;32.50
33105;DHT22;19476;51.448;6.674;2023-04-06T00:26:08;13.40;32.40
33105;DHT22;19476;51.448;6.674;2023-04-06T00:28:34;13.30;32.50
33105;DHT22;19476;51.448;6.674;2023-04-06T00:31:00;13.30;32.50
33105;DHT22;19476;51.448;6.674;2023-04-06T00:33:26;13.30;32.60
33105;DHT22;19476;51.448;6.674;2023-04-06T00:35:52;13.30;32.70
33105;DHT22;19476;51.448;6.674;2023-04-06T00:38:17;13.20;32.80
33105;DHT22;19476;51.448;6.674;2023-04-06T00:40:44;13.20;32.80
33105;DHT22;19476;51.448;6.674;2023-04-06T00:43:11;13.10;32.80
33105;DHT22;19476;51.448;6.674;2023-04-06T00:45:41;13.10;33.10
33105;DHT22;19476;51.448;6.674;2023-04-06T00:48:07;13.00;33.30
33105;DHT22;19476;51.448;6.674;2023-04-06T00:50:33;13.00;33.00
33105;DHT22;19476;51.448;6.674;2023-04-06T00:52:59;13.00;33.10
33105;DHT22;19476;51.448;6.674;2023-04-06T00:55:29;13.00;33.20
33105;DHT22;19476;51.448;6.674;2023-04-06T00:57:57;13.20;33.60
33105;DHT22;19476;51.448;6.674;2023-04-06T01:00:24;12.90;33.60
33105;DHT22;19476;51.448;6.674;2023-04-06T01:02:50;12.90;33.50
33105;DHT22;19476;51.448;6.674;2023-04-06T01:05:16;12.80;33.50
33105;DHT22;19476;51.448;6.674;2023-04-06T01:07:41;12.80;33.60
33105;DHT22;19476;51.448;6.674;2023-04-06T01:10:08;12.80;33.70
33105;DHT22;19476;51.448;6.674;2023-04-06T01:12:34;12.70;33.80
33105;DHT22;19476;51.448;6.674;2023-04-06T01:15:00;12.70;33.70
33105;DHT22;19476;51.448;6.674;2023-04-06T01:17:25;12.70;33.70
33105;DHT22;19476;51.448;6.674;2023-04-06T01:19:51;12.60;33.60
33105;DHT22;19476;51.448;6.674;2023-04-06T01:22:19;12.60;33.70
33105;DHT22;19476;51.448;6.674;2023-04-06T01:24:45;12.60;33.80
33105;DHT22;19476;51.448;6.674;2023-04-06T01:27:12;12.50;33.60
33105;DHT22;19476;51.448;6.674;2023-04-06T01:29:39;12.50;33.70
33105;DHT22;19476;51.448;6.674;2023-04-06T01:32:08;12.50;33.70
33105;DHT22;19476;51.448;6.674;2023-04-06T01:34:34;12.50;33.60
33105;DHT22;19476;51.448;6.674;2023-04-06T01:37:00;12.40;33.70
33105;DHT22;19476;51.448;6.674;2023-04-06T01:39:26;12.40;33.70
33105;DHT22;19476;51.448;6.674;2023-04-06T01:41:52;12.40;33.60
33105;DHT22;19476;51.448;6.674;2023-04-06T01:44:18;12.40;33.60
33105;DHT22;19476;51.448;6.674;2023-04-06T01:46:46;12.40;33.70
33105;DHT22;19476;51.448;6.674;2023-04-06T01:49:12;12.40;33.80
33105;DHT22;19476;51.448;6.674;2023-04-06T01:51:38;12.30;33.80
33105;DHT22;19476;51.448;6.674;2023-04-06T01:54:04;12.30;33.90
33105;DHT22;19476;51.448;6.674;2023-04-06T01:56:31;12.30;34.00
33105;DHT22;19476;51.448;6.674;2023-04-06T01:58:56;12.30;34.00
33105;DHT22;19476;51.448;6.674;2023-04-06T02:01:22;12.30;34.00
33105;DHT22;19476;51.448;6.674;2023-04-06T02:03:48;12.30;34.00
33105;DHT22;19476;51.448;6.674;2023-04-06T02:06:14;12.30;34.40
33105;DHT22;19476;51.448;6.674;2023-04-06T02:08:40;12.30;33.80
33105;DHT22;19476;51.448;6.674;2023-04-06T02:11:05;12.30;33.80
33105;DHT22;19476;51.448;6.674;2023-04-06T02:13:31;12.20;33.70
33105;DHT22;19476;51.448;6.674;2023-04-06T02:15:57;12.20;33.80
33105;DHT22;19476;51.448;6.674;2023-04-06T02:18:23;12.20;33.80
33105;DHT22;19476;51.448;6.674;2023-04-06T02:20:49;12.10;33.90
33105;DHT22;19476;51.448;6.674;2023-04-06T02:23:15;12.10;33.90
33105;DHT22;19476;51.448;6.674;2023-04-06T02:25:41;12.10;33.90
33105;DHT22;19476;51.448;6.674;2023-04-06T02:28:07;12.10;33.90
33105;DHT22;19476;51.448;6.674;2023-04-06T02:30:32;12.10;33.90
33105;DHT22;19476;51.448;6.674;2023-04-06T02:33:02;12.10;33.90
33105;DHT22;19476;51.448;6.674;2023-04-06T02:35:29;12.10;34.00
33105;DHT22;19476;51.448;6.674;2023-04-06T02:37:55;12.10;33.90
33105;DHT22;19476;51.448;6.674;2023-04-06T02:40:21;12.10;33.80
33105;DHT22;19476;51.448;6.674;2023-04-06T02:42:48;12.10;33.80
33105;DHT22;19476;51.448;6.674;2023-04-06T02:45:14;12.00;33.80
33105;DHT22;19476;51.448;6.674;2023-04-06T02:47:40;12.00;33.70
33105;DHT22;19476;51.448;6.674;2023-04-06T02:50:06;12.00;33.80
33105;DHT22;19476;51.448;6.674;2023-04-06T02:52:32;12.00;33.80
33105;DHT22;19476;51.448;6.674;2023-04-06T02:54:58;11.90;33.80
33105;DHT22;19476;51.448;6.674;2023-04-06T02:57:24;11.90;33.80
33105;DHT22;19476;51.448;6.674;2023-04-06T02:59:49;11.80;33.80
33105;DHT22;19476;51.448;6.674;2023-04-06T03:02:15;11.80;33.80
33105;DHT22;19476;51.448;6.674;2023-04-06T03:04:42;11.70;33.90
33105;DHT22;19476;51.448;6.674;2023-04-06T03:07:08;11.70;34.10
33105;DHT22;19476;51.448;6.674;2023-04-06T03:09:36;11.70;34.10
33105;DHT22;19476;51.448;6.674;2023-04-06T03:12:02;11.70;34.20
33105;DHT22;19476;51.448;6.674;2023-04-06T03:14:28;11.60;34.20
33105;DHT22;19476;51.448;6.674;2023-04-06T03:16:54;11.60;34.10
33105;DHT22;19476;51.448;6.674;2023-04-06T03:19:20;11.60;34.20
33105;DHT22;19476;51.448;6.674;2023-04-06T03:21:46;11.50;34.30
33105;DHT22;19476;51.448;6.674;2023-04-06T03:24:12;11.50;34.40
33105;DHT22;19476;51.448;6.674;2023-04-06T03:26:39;11.50;34.50
33105;DHT22;19476;51.448;6.674;2023-04-06T03:29:05;11.50;34.50
33105;DHT22;19476;51.448;6.674;2023-04-06T03:31:31;11.50;34.60
33105;DHT22;19476;51.448;6.674;2023-04-06T03:33:57;11.50;34.70
33105;DHT22;19476;51.448;6.674;2023-04-06T03:36:22;11.50;34.80
33105;DHT22;19476;51.448;6.674;2023-04-06T03:38:48;11.50;34.80
33105;DHT22;19476;51.448;6.674;2023-04-06T03:41:14;11.50;34.80
33105;DHT22;19476;51.448;6.674;2023-04-06T03:43:40;11.50;34.80
33105;DHT22;19476;51.448;6.674;2023-04-06T03:46:06;11.50;34.80
33105;DHT22;19476;51.448;6.674;2023-04-06T03:48:31;11.50;34.80
33105;DHT22;19476;51.448;6.674;2023-04-06T03:50:57;11.50;34.80
33105;DHT22;19476;51.448;6.674;2023-04-06T03:53:23;11.40;34.80
33105;DHT22;19476;51.448;6.674;2023-04-06T03:55:49;11.40;34.80
33105;DHT22;19476;51.448;6.674;2023-04-06T03:58:14;11.40;34.90
33105;DHT22;19476;51.448;6.674;2023-04-06T04:00:40;11.40;35.00
33105;DHT22;19476;51.448;6.674;2023-04-06T04:03:06;11.40;35.00
33105;DHT22;19476;51.448;6.674;2023-04-06T04:05:32;11.50;35.10
33105;DHT22;19476;51.448;6.674;2023-04-06T04:07:58;11.40;35.10
33105;DHT22;19476;51.448;6.674;2023-04-06T04:10:24;11.40;35.20
33105;DHT22;19476;51.448;6.674;2023-04-06T04:12:49;11.50;35.30
33105;DHT22;19476;51.448;6.674;2023-04-06T04:15:15;11.40;35.20
33105;DHT22;19476;51.448;6.674;2023-04-06T04:17:41;11.50;35.30
33105;DHT22;19476;51.448;6.674;2023-04-06T04:20:12;11.40;35.20
33105;DHT22;19476;51.448;6.674;2023-04-06T04:22:38;11.40;35.20
33105;DHT22;19476;51.448;6.674;2023-04-06T04:25:04;11.40;35.10
33105;DHT22;19476;51.448;6.674;2023-04-06T04:27:30;11.40;35.20
33105;DHT22;19476;51.448;6.674;2023-04-06T04:29:56;11.40;35.10
33105;DHT22;19476;51.448;6.674;2023-04-06T04:32:22;11.40;35.20
33105;DHT22;19476;51.448;6.674;2023-04-06T04:34:48;11.40;35.20
33105;DHT22;19476;51.448;6.674;2023-04-06T04:37:13;11.30;35.10
33105;DHT22;19476;51.448;6.674;2023-04-06T04:39:40;11.30;35.20
33105;DHT22;19476;51.448;6.674;2023-04-06T04:42:05;11.30;35.30
33105;DHT22;19476;51.448;6.674;2023-04-06T04:44:31;11.30;35.40
33105;DHT22;19476;51.448;6.674;2023-04-06T04:46:57;11.30;35.50
33105;DHT22;19476;51.448;6.674;2023-04-06T04:49:23;11.30;35.50
33105;DHT22;19476;51.448;6.674;2023-04-06T04:51:49;11.30;35.60
33105;DHT22;19476;51.448;6.674;2023-04-06T04:54:18;11.30;35.50
33105;DHT22;19476;51.448;6.674;2023-04-06T04:56:44;11.30;35.50
33105;DHT22;19476;51.448;6.674;2023-04-06T04:59:11;11.30;35.40
33105;DHT22;19476;51.448;6.674;2023-04-06T05:01:37;11.30;35.40
33105;DHT22;19476;51.448;6.674;2023-04-06T05:04:02;11.30;35.30
33105;DHT22;19476;51.448;6.674;2023-04-06T05:06:28;11.30;35.20
33105;DHT22;19476;51.448;6.674;2023-04-06T05:08:54;11.30;35.20
33105;DHT22;19476;51.448;6.674;2023-04-06T05:11:20;11.20;35.10
33105;DHT22;19476;51.448;6.674;2023-04-06T05:13:46;11.20;35.10
33105;DHT22;19476;51.448;6.674;2023-04-06T05:16:12;11.10;35.20
33105;DHT22;19476;51.448;6.674;2023-04-06T05:18:38;11.10;35.30
33105;DHT22;19476;51.448;6.674;2023-04-06T05:21:04;11.10;35.40
33105;DHT22;19476;51.448;6.674;2023-04-06T05:23:30;11.00;35.40
33105;DHT22;19476;51.448;6.674;2023-04-06T05:25:56;11.00;35.50
33105;DHT22;19476;51.448;6.674;2023-04-06T05:28:22;11.00;35.50
33105;DHT22;19476;51.448;6.674;2023-04-06T05:30:48;10.90;35.50
33105;DHT22;19476;51.448;6.674;2023-04-06T05:33:13;10.90;35.60
33105;DHT22;19476;51.448;6.674;2023-04-06T05:35:39;10.90;35.70
33105;DHT22;19476;51.448;6.674;2023-04-06T05:38:08;10.90;35.80
33105;DHT22;19476;51.448;6.674;2023-04-06T05:40:34;10.80;35.90
33105;DHT22;19476;51.448;6.674;2023-04-06T05:43:00;10.80;35.90
33105;DHT22;19476;51.448;6.674;2023-04-06T05:45:26;10.80;35.90
33105;DHT22;19476;51.448;6.674;2023-04-06T05:47:52;10.80;36.00
33105;DHT22;19476;51.448;6.674;2023-04-06T05:50:18;10.80;36.10
33105;DHT22;19476;51.448;6.674;2023-04-06T05:52:44;10.70;36.10
33105;DHT22;19476;51.448;6.674;2023-04-06T05:55:12;10.80;36.10
33105;DHT22;19476;51.448;6.674;2023-04-06T05:57:38;10.80;36.20
33105;DHT22;19476;51.448;6.674;2023-04-06T06:00:05;10.80;36.20
33105;DHT22;19476;51.448;6.674;2023-04-06T06:02:32;10.80;36.30
33105;DHT22;19476;51.448;6.674;2023-04-06T06:04:58;10.80;36.30
33105;DHT22;19476;51.448;6.674;2023-04-06T06:07:24;10.80;36.30
33105;DHT22;19476;51.448;6.674;2023-04-06T06:09:49;10.80;36.30
33105;DHT22;19476;51.448;6.674;2023-04-06T06:12:15;10.80;36.30
33105;DHT22;19476;51.448;6.674;2023-04-06T06:14:41;10.80;36.30
33105;DHT22;19476;51.448;6.674;2023-04-06T06:17:08;10.80;36.40
33105;DHT22;19476;51.448;6.674;2023-04-06T06:19:34;10.80;35.60
33105;DHT22;19476;51.448;6.674;2023-04-06T06:22:00;10.90;35.70
33105;DHT22;19476;51.448;6.674;2023-04-06T06:24:28;10.90;36.40
33105;DHT22;19476;51.448;6.674;2023-04-06T06:26:54;10.90;36.50
33105;DHT22;19476;51.448;6.674;2023-04-06T06:29:19;10.90;36.40
33105;DHT22;19476;51.448;6.674;2023-04-06T06:31:45;11.00;36.50
33105;DHT22;19476;51.448;6.674;2023-04-06T06:34:11;11.00;36.60
33105;DHT22;19476;51.448;6.674;2023-04-06T06:36:38;11.00;36.50
33105;DHT22;19476;51.448;6.674;2023-04-06T06:39:04;11.10;36.60
33105;DHT22;19476;51.448;6.674;2023-04-06T06:41:30;11.20;36.60
33105;DHT22;19476;51.448;6.674;2023-04-06T06:43:55;11.20;36.60
33105;DHT22;19476;51.448;6.674;2023-04-06T06:46:21;11.30;36.60
33105;DHT22;19476;51.448;6.674;2023-04-06T06:48:47;11.30;36.60
33105;DHT22;19476;51.448;6.674;2023-04-06T06:51:13;11.40;36.60
33105;DHT22;19476;51.448;6.674;2023-04-06T06:53:39;11.40;36.60
33105;DHT22;19476;51.448;6.674;2023-04-06T06:56:05;11.50;36.60
33105;DHT22;19476;51.448;6.674;2023-04-06T06:58:31;11.50;36.60
33105;DHT22;19476;51.448;6.674;2023-04-06T07:00:58;11.60;36.60
33105;DHT22;19476;51.448;6.674;2023-04-06T07:03:24;11.60;36.70
33105;DHT22;19476;51.448;6.674;2023-04-06T07:05:50;11.80;36.70
33105;DHT22;19476;51.448;6.674;2023-04-06T07:08:23;11.80;36.60
33105;DHT22;19476;51.448;6.674;2023-04-06T07:10:51;11.90;36.60
33105;DHT22;19476;51.448;6.674;2023-04-06T07:13:21;12.00;36.40
33105;DHT22;19476;51.448;6.674;2023-04-06T07:15:51;12.10;36.30
33105;DHT22;19476;51.448;6.674;2023-04-06T07:18:18;12.20;36.20
33105;DHT22;19476;51.448;6.674;2023-04-06T07:20:44;12.30;35.90
33105;DHT22;19476;51.448;6.674;2023-04-06T07:23:10;12.30;35.60
33105;DHT22;19476;51.448;6.674;2023-04-06T07:25:36;12.40;35.50
33105;DHT22;19476;51.448;6.674;2023-04-06T07:28:03;12.50;35.20
33105;DHT22;19476;51.448;6.674;2023-04-06T07:30:29;12.60;35.10
33105;DHT22;19476;51.448;6.674;2023-04-06T07:39:39;12.70;35.00
33105;DHT22;19476;51.448;6.674;2023-04-06T07:42:06;12.70;34.90
33105;DHT22;19476;51.448;6.674;2023-04-06T07:44:32;12.80;35.10
33105;DHT22;19476;51.448;6.674;2023-04-06T07:47:07;12.90;35.00
33105;DHT22;19476;51.448;6.674;2023-04-06T07:49:33;13.00;34.70
33105;DHT22;19476;51.448;6.674;2023-04-06T07:51:59;13.00;34.50
33105;DHT22;19476;51.448;6.674;2023-04-06T07:54:26;13.10;34.40
33105;DHT22;19476;51.448;6.674;2023-04-06T07:56:52;13.20;34.40
33105;DHT22;19476;51.448;6.674;2023-04-06T07:59:18;13.20;34.40
33105;DHT22;19476;51.448;6.674;2023-04-06T08:01:43;13.40;34.40
33105;DHT22;19476;51.448;6.674;2023-04-06T08:04:09;13.50;34.30
33105;DHT22;19476;51.448;6.674;2023-04-06T08:06:35;13.60;34.10
33105;DHT22;19476;51.448;6.674;2023-04-06T08:09:02;13.70;33.90
33105;DHT22;19476;51.448;6.674;2023-04-06T08:11:28;13.80;33.80
33105;DHT22;19476;51.448;6.674;2023-04-06T08:13:55;13.80;33.70
33105;DHT22;19476;51.448;6.674;2023-04-06T08:16:24;13.90;33.50
33105;DHT22;19476;51.448;6.674;2023-04-06T08:18:50;13.90;33.50
33105;DHT22;19476;51.448;6.674;2023-04-06T08:21:16;14.00;33.60
33105;DHT22;19476;51.448;6.674;2023-04-06T08:23:42;14.10;33.60
33105;DHT22;19476;51.448;6.674;2023-04-06T08:26:07;14.20;33.60
33105;DHT22;19476;51.448;6.674;2023-04-06T08:28:33;14.30;33.60
33105;DHT22;19476;51.448;6.674;2023-04-06T08:31:04;14.30;33.40
33105;DHT22;19476;51.448;6.674;2023-04-06T08:33:30;14.40;33.30
33105;DHT22;19476;51.448;6.674;2023-04-06T08:35:56;14.40;33.10
33105;DHT22;19476;51.448;6.674;2023-04-06T08:38:22;14.50;33.00
33105;DHT22;19476;51.448;6.674;2023-04-06T08:40:48;14.60;33.00
33105;DHT22;19476;51.448;6.674;2023-04-06T08:43:17;14.60;32.80
33105;DHT22;19476;51.448;6.674;2023-04-06T08:45:45;14.70;32.80
33105;DHT22;19476;51.448;6.674;2023-04-06T08:48:12;14.80;32.70
33105;DHT22;19476;51.448;6.674;2023-04-06T08:50:39;14.80;32.60
33105;DHT22;19476;51.448;6.674;2023-04-06T08:53:06;14.90;32.60
33105;DHT22;19476;51.448;6.674;2023-04-06T08:55:33;15.00;32.40
33105;DHT22;19476;51.448;6.674;2023-04-06T08:57:59;15.10;32.50
33105;DHT22;19476;51.448;6.674;2023-04-06T09:00:26;15.10;32.30
33105;DHT22;19476;51.448;6.674;2023-04-06T09:02:56;15.30;32.40
33105;DHT22;19476;51.448;6.674;2023-04-06T09:05:24;15.30;32.20
33105;DHT22;19476;51.448;6.674;2023-04-06T09:07:51;15.50;32.10
33105;DHT22;19476;51.448;6.674;2023-04-06T09:10:17;15.50;32.10
33105;DHT22;19476;51.448;6.674;2023-04-06T09:12:43;15.60;31.80
33105;DHT22;19476;51.448;6.674;2023-04-06T09:15:22;15.60;31.60
33105;DHT22;19476;51.448;6.674;2023-04-06T09:17:47;15.80;30.80
33105;DHT22;19476;51.448;6.674;2023-04-06T09:20:13;15.80;31.30
33105;DHT22;19476;51.448;6.674;2023-04-06T09:22:39;15.80;31.00
33105;DHT22;19476;51.448;6.674;2023-04-06T09:25:07;15.90;30.90
33105;DHT22;19476;51.448;6.674;2023-04-06T09:27:36;15.90;31.20
33105;DHT22;19476;51.448;6.674;2023-04-06T09:30:10;16.00;31.00
33105;DHT22;19476;51.448;6.674;2023-04-06T09:32:52;16.00;30.80
33105;DHT22;19476;51.448;6.674;2023-04-06T09:35:19;16.10;30.90
33105;DHT22;19476;51.448;6.674;2023-04-06T09:37:49;16.10;31.00
33105;DHT22;19476;51.448;6.674;2023-04-06T09:40:16;16.20;31.10
33105;DHT22;19476;51.448;6.674;2023-04-06T09:42:50;16.20;31.00
33105;DHT22;19476;51.448;6.674;2023-04-06T09:45:18;16.30;30.70
33105;DHT22;19476;51.448;6.674;2023-04-06T09:47:45;16.30;30.60
33105;DHT22;19476;51.448;6.674;2023-04-06T09:50:13;16.40;30.60
33105;DHT22;19476;51.448;6.674;2023-04-06T09:52:51;16.40;30.00
33105;DHT22;19476;51.448;6.674;2023-04-06T09:55:42;16.40;30.00
33105;DHT22;19476;51.448;6.674;2023-04-06T09:58:16;16.50;29.90
33105;DHT22;19476;51.448;6.674;2023-04-06T10:06:13;16.60;29.80
33105;DHT22;19476;51.448;6.674;2023-04-06T10:08:40;16.70;29.90
33105;DHT22;19476;51.448;6.674;2023-04-06T10:11:08;16.70;29.90
33105;DHT22;19476;51.448;6.674;2023-04-06T10:13:36;16.80;30.00
33105;DHT22;19476;51.448;6.674;2023-04-06T10:16:02;16.80;30.00
33105;DHT22;19476;51.448;6.674;2023-04-06T10:18:29;16.90;30.00
33105;DHT22;19476;51.448;6.674;2023-04-06T10:21:06;17.00;30.00
33105;DHT22;19476;51.448;6.674;2023-04-06T10:23:52;17.10;30.10
33105;DHT22;19476;51.448;6.674;2023-04-06T10:26:22;17.20;30.10
33105;DHT22;19476;51.448;6.674;2023-04-06T10:28:49;17.20;30.10
33105;DHT22;19476;51.448;6.674;2023-04-06T10:31:23;17.30;30.20
33105;DHT22;19476;51.448;6.674;2023-04-06T10:33:59;17.30;30.30
33105;DHT22;19476;51.448;6.674;2023-04-06T10:36:32;17.40;30.10
33105;DHT22;19476;51.448;6.674;2023-04-06T10:39:01;17.50;30.20
33105;DHT22;19476;51.448;6.674;2023-04-06T10:41:42;17.50;30.30
33105;DHT22;19476;51.448;6.674;2023-04-06T10:44:16;17.60;30.20
33105;DHT22;19476;51.448;6.674;2023-04-06T10:46:57;17.60;30.00
33105;DHT22;19476;51.448;6.674;2023-04-06T10:49:24;17.70;30.00
33105;DHT22;19476;51.448;6.674;2023-04-06T10:51:55;17.70;30.10
33105;DHT22;19476;51.448;6.674;2023-04-06T10:54:25;17.70;30.00
33105;DHT22;19476;51.448;6.674;2023-04-06T10:56:51;17.80;30.00
33105;DHT22;19476;51.448;6.674;2023-04-06T10:59:20;17.80;30.00
33105;DHT22;19476;51.448;6.674;2023-04-06T11:01:47;17.90;30.00
33105;DHT22;19476;51.448;6.674;2023-04-06T11:04:16;17.90;29.80
33105;DHT22;19476;51.448;6.674;2023-04-06T11:06:49;17.90;30.00
33105;DHT22;19476;51.448;6.674;2023-04-06T11:09:29;18.00;30.10
33105;DHT22;19476;51.448;6.674;2023-04-06T11:11:57;18.00;30.00
33105;DHT22;19476;51.448;6.674;2023-04-06T11:14:23;18.10;30.00
33105;DHT22;19476;51.448;6.674;2023-04-06T11:16:50;18.10;29.90
33105;DHT22;19476;51.448;6.674;2023-04-06T11:19:17;18.10;30.00
33105;DHT22;19476;51.448;6.674;2023-04-06T11:21:45;18.10;30.00
33105;DHT22;19476;51.448;6.674;2023-04-06T11:24:19;18.10;30.20
33105;DHT22;19476;51.448;6.674;2023-04-06T11:26:47;18.10;30.30
33105;DHT22;19476;51.448;6.674;2023-04-06T11:29:16;18.10;30.40
33105;DHT22;19476;51.448;6.674;2023-04-06T11:31:46;18.10;30.60
33105;DHT22;19476;51.448;6.674;2023-04-06T11:34:23;18.10;30.80
33105;DHT22;19476;51.448;6.674;2023-04-06T11:36:57;18.10;30.90
33105;DHT22;19476;51.448;6.674;2023-04-06T11:39:25;18.00;30.80
33105;DHT22;19476;51.448;6.674;2023-04-06T11:41:57;18.00;31.10
33105;DHT22;19476;51.448;6.674;2023-04-06T11:44:35;18.00;31.20
33105;DHT22;19476;51.448;6.674;2023-04-06T11:47:03;18.00;31.20
33105;DHT22;19476;51.448;6.674;2023-04-06T11:49:30;18.00;31.20
33105;DHT22;19476;51.448;6.674;2023-04-06T11:51:57;18.00;31.20
33105;DHT22;19476;51.448;6.674;2023-04-06T11:54:31;18.00;31.20
33105;DHT22;19476;51.448;6.674;2023-04-06T11:56:57;18.00;31.40
33105;DHT22;19476;51.448;6.674;2023-04-06T11:59:23;18.00;31.30
33105;DHT22;19476;51.448;6.674;2023-04-06T12:01:49;18.00;31.40
33105;DHT22;19476;51.448;6.674;2023-04-06T12:04:14;18.00;31.40
33105;DHT22;19476;51.448;6.674;2023-04-06T12:06:40;18.00;31.50
33105;DHT22;19476;51.448;6.674;2023-04-06T12:09:06;18.10;31.40
33105;DHT22;19476;51.448;6.674;2023-04-06T12:11:32;18.10;31.30
33105;DHT22;19476;51.448;6.674;2023-04-06T12:13:58;18.10;31.40
33105;DHT22;19476;51.448;6.674;2023-04-06T12:16:27;18.10;31.50
33105;DHT22;19476;51.448;6.674;2023-04-06T12:18:53;18.10;31.60
33105;DHT22;19476;51.448;6.674;2023-04-06T12:21:18;18.10;31.70
33105;DHT22;19476;51.448;6.674;2023-04-06T12:23:44;18.10;31.80
33105;DHT22;19476;51.448;6.674;2023-04-06T12:26:10;18.10;31.80
33105;DHT22;19476;51.448;6.674;2023-04-06T12:28:36;18.10;31.70
33105;DHT22;19476;51.448;6.674;2023-04-06T12:31:02;18.10;32.20
33105;DHT22;19476;51.448;6.674;2023-04-06T12:33:28;18.10;31.40
33105;DHT22;19476;51.448;6.674;2023-04-06T12:35:54;18.20;31.30
33105;DHT22;19476;51.448;6.674;2023-04-06T12:38:20;18.20;31.20
33105;DHT22;19476;51.448;6.674;2023-04-06T12:40:46;18.20;31.20
33105;DHT22;19476;51.448;6.674;2023-04-06T12:43:12;18.20;31.00
33105;DHT22;19476;51.448;6.674;2023-04-06T12:45:39;18.10;31.00
33105;DHT22;19476;51.448;6.674;2023-04-06T12:48:06;18.10;31.30
33105;DHT22;19476;51.448;6.674;2023-04-06T12:50:32;18.10;31.50
33105;DHT22;19476;51.448;6.674;2023-04-06T12:52:58;18.10;31.80
33105;DHT22;19476;51.448;6.674;2023-04-06T12:55:24;18.10;32.00
33105;DHT22;19476;51.448;6.674;2023-04-06T12:57:50;18.10;32.20
33105;DHT22;19476;51.448;6.674;2023-04-06T13:00:16;18.00;32.30
33105;DHT22;19476;51.448;6.674;2023-04-06T13:02:42;18.00;32.60
33105;DHT22;19476;51.448;6.674;2023-04-06T13:05:13;17.90;32.70
33105;DHT22;19476;51.448;6.674;2023-04-06T13:07:44;17.90;33.00
33105;DHT22;19476;51.448;6.674;2023-04-06T13:10:10;17.80;32.90
33105;DHT22;19476;51.448;6.674;2023-04-06T13:12:35;17.70;33.00
33105;DHT22;19476;51.448;6.674;2023-04-06T13:15:02;17.70;33.00
33105;DHT22;19476;51.448;6.674;2023-04-06T13:17:29;17.70;33.00
33105;DHT22;19476;51.448;6.674;2023-04-06T13:19:55;17.70;33.10
33105;DHT22;19476;51.448;6.674;2023-04-06T13:22:21;17.70;33.30
33105;DHT22;19476;51.448;6.674;2023-04-06T13:24:46;17.70;33.50
33105;DHT22;19476;51.448;6.674;2023-04-06T13:27:12;17.60;34.20
33105;DHT22;19476;51.448;6.674;2023-04-06T13:29:38;17.60;34.90
33105;DHT22;19476;51.448;6.674;2023-04-06T13:32:04;17.60;35.20
33105;DHT22;19476;51.448;6.674;2023-04-06T13:34:30;17.60;35.90
33105;DHT22;19476;51.448;6.674;2023-04-06T13:36:56;17.60;35.30
33105;DHT22;19476;51.448;6.674;2023-04-06T13:39:22;17.60;35.40
33105;DHT22;19476;51.448;6.674;2023-04-06T13:41:48;17.60;35.70
33105;DHT22;19476;51.448;6.674;2023-04-06T13:44:13;17.50;35.90
33105;DHT22;19476;51.448;6.674;2023-04-06T13:46:39;17.40;36.20
33105;DHT22;19476;51.448;6.674;2023-04-06T13:49:05;17.50;36.60
33105;DHT22;19476;51.448;6.674;2023-04-06T13:51:31;17.40;36.90
33105;DHT22;19476;51.448;6.674;2023-04-06T13:53:57;17.30;37.50
33105;DHT22;19476;51.448;6.674;2023-04-06T13:56:23;17.30;37.80
33105;DHT22;19476;51.448;6.674;2023-04-06T13:58:48;17.20;38.20
33105;DHT22;19476;51.448;6.674;2023-04-06T14:01:14;17.20;38.90
33105;DHT22;19476;51.448;6.674;2023-04-06T14:03:40;17.20;39.20
33105;DHT22;19476;51.448;6.674;2023-04-06T14:06:13;17.20;39.60
33105;DHT22;19476;51.448;6.674;2023-04-06T14:08:39;17.20;40.70
33105;DHT22;19476;51.448;6.674;2023-04-06T14:11:07;17.10;40.50
33105;DHT22;19476;51.448;6.674;2023-04-06T14:13:37;17.10;40.60
33105;DHT22;19476;51.448;6.674;2023-04-06T14:16:03;17.10;40.80
33105;DHT22;19476;51.448;6.674;2023-04-06T14:18:29;17.00;40.90
33105;DHT22;19476;51.448;6.674;2023-04-06T14:20:57;17.00;41.20
33105;DHT22;19476;51.448;6.674;2023-04-06T14:23:23;17.00;41.70
33105;DHT22;19476;51.448;6.674;2023-04-06T14:26:00;17.00;41.90
33105;DHT22;19476;51.448;6.674;2023-04-06T14:28:26;16.90;42.00
33105;DHT22;19476;51.448;6.674;2023-04-06T14:30:56;16.90;42.00
33105;DHT22;19476;51.448;6.674;2023-04-06T14:33:23;16.90;42.60
33105;DHT22;19476;51.448;6.674;2023-04-06T14:35:49;16.80;42.40
33105;DHT22;19476;51.448;6.674;2023-04-06T14:38:14;16.70;42.60
33105;DHT22;19476;51.448;6.674;2023-04-06T14:40:40;16.70;43.00
33105;DHT22;19476;51.448;6.674;2023-04-06T14:43:06;16.60;43.10
33105;DHT22;19476;51.448;6.674;2023-04-06T14:45:33;16.50;42.90
33105;DHT22;19476;51.448;6.674;2023-04-06T14:48:05;16.50;43.20
33105;DHT22;19476;51.448;6.674;2023-04-06T14:50:32;16.40;43.50
33105;DHT22;19476;51.448;6.674;2023-04-06T14:52:59;16.40;43.70
33105;DHT22;19476;51.448;6.674;2023-04-06T14:55:26;16.30;43.70
33105;DHT22;19476;51.448;6.674;2023-04-06T14:57:52;16.30;43.60
33105;DHT22;19476;51.448;6.674;2023-04-06T15:00:18;16.30;44.10
33105;DHT22;19476;51.448;6.674;2023-04-06T15:02:44;16.20;44.00
33105;DHT22;19476;51.448;6.674;2023-04-06T15:05:09;16.20;44.20
33105;DHT22;19476;51.448;6.674;2023-04-06T15:07:46;16.20;44.40
33105;DHT22;19476;51.448;6.674;2023-04-06T15:10:33;16.10;45.30
33105;DHT22;19476;51.448;6.674;2023-04-06T15:12:59;16.10;44.60
33105;DHT22;19476;51.448;6.674;2023-04-06T15:15:26;16.00;44.70
33105;DHT22;19476;51.448;6.674;2023-04-06T15:17:51;15.90;45.10
33105;DHT22;19476;51.448;6.674;2023-04-06T15:20:17;16.00;45.50
33105;DHT22;19476;51.448;6.674;2023-04-06T15:22:44;15.90;46.00
33105;DHT22;19476;51.448;6.674;2023-04-06T15:25:10;15.90;46.20
33105;DHT22;19476;51.448;6.674;2023-04-06T15:27:36;15.80;46.40
33105;DHT22;19476;51.448;6.674;2023-04-06T15:33:31;15.70;47.20
33105;DHT22;19476;51.448;6.674;2023-04-06T15:35:57;15.70;46.40
33105;DHT22;19476;51.448;6.674;2023-04-06T15:38:23;15.60;46.70
33105;DHT22;19476;51.448;6.674;2023-04-06T15:40:49;15.50;46.90
33105;DHT22;19476;51.448;6.674;2023-04-06T15:46:31;15.40;48.30
33105;DHT22;19476;51.448;6.674;2023-04-06T15:48:57;15.30;47.30